Time;durP1;ratioP1;P1;durP2;ratioP2;P2;SDS_P1;SDS_P2;PMS_P1;PMS_P2;Temp;Humidity;BMP_temperature;BMP_pressure;BME280_temperature;BME280_humidity;BME280_pressure;Samples;Min_cycle;Max_cycle;Signal;HPM_P1;HPM_P2
2022/01/23 00:02:20;;;;;;;9.87;4.43;;;5.10;97.30;;;;;;5082093;28;20410;-92
2022/01/23 00:04:46;;;;;;;7.63;3.40;;;5.10;97.30;;;;;;5083657;28;20450;-92
2022/01/23 00:07:14;;;;;;;6.73;3.50;;;5.10;97.30;;;;;;5081884;28;20408;-92
2022/01/23 00:09:40;;;;;;;7.60;3.93;;;5.10;97.30;;;;;;5081064;28;20224;-92
2022/01/23 00:12:12;;;;;;;9.13;3.63;;;5.10;97.30;;;;;;5099088;28;20990;-90
2022/01/23 00:17:24;;;;;;;9.27;4.07;;;5.10;97.30;;;;;;5099149;28;20412;-92
2022/01/23 00:19:58;;;;;;;7.80;3.67;;;5.10;97.30;;;;;;5098957;28;20432;-91
2022/01/23 00:22:34;;;;;;;6.67;3.23;;;5.10;97.30;;;;;;5099227;28;20431;-92
2022/01/23 00:30:30;;;;;;;7.13;3.23;;;5.00;97.30;;;;;;5098931;28;20910;-92
2022/01/23 00:33:01;;;;;;;10.53;4.93;;;5.10;97.30;;;;;;5080354;28;21007;-91
2022/01/23 00:35:28;;;;;;;6.80;3.20;;;5.00;97.30;;;;;;5080731;28;20557;-91
2022/01/23 00:37:55;;;;;;;10.07;4.70;;;5.00;97.30;;;;;;5080759;28;20454;-91
2022/01/23 00:40:21;;;;;;;8.77;4.23;;;5.00;97.30;;;;;;5098365;28;20468;-91
2022/01/23 00:42:48;;;;;;;8.33;3.70;;;5.00;97.30;;;;;;5080343;28;20416;-92
2022/01/23 00:48:02;;;;;;;9.60;4.20;;;5.00;97.30;;;;;;5098957;28;20427;-91
2022/01/23 00:50:30;;;;;;;5.00;3.17;;;5.00;97.30;;;;;;5078798;28;20897;-92
2022/01/23 00:52:56;;;;;;;12.60;4.10;;;4.90;97.30;;;;;;5094814;28;20452;-91
2022/01/23 00:55:21;;;;;;;8.50;4.00;;;4.90;97.30;;;;;;5077106;28;20458;-91
2022/01/23 00:57:47;;;;;;;5.67;3.90;;;4.90;97.30;;;;;;5077396;28;20170;-91
2022/01/23 01:00:13;;;;;;;8.70;3.77;;;4.90;97.30;;;;;;5077581;28;20198;-91
2022/01/23 01:02:39;;;;;;;7.07;3.90;;;4.90;97.30;;;;;;5077352;28;20196;-92
2022/01/23 01:05:05;;;;;;;8.70;3.73;;;4.90;97.30;;;;;;5077195;28;21198;-91
2022/01/23 01:07:30;;;;;;;7.13;3.23;;;4.90;97.30;;;;;;5077255;28;20477;-91
2022/01/23 01:10:01;;;;;;;7.63;3.60;;;4.90;97.30;;;;;;5077076;28;20522;-91
2022/01/23 01:12:36;;;;;;;6.03;3.80;;;4.90;97.30;;;;;;5077339;28;20219;-91
2022/01/23 01:31:40;;;;;;;8.20;4.33;;;4.90;97.30;;;;;;5094959;28;20408;-91
2022/01/23 01:34:13;;;;;;;6.57;3.60;;;4.90;97.30;;;;;;5076371;28;20459;-91
2022/01/23 01:36:48;;;;;;;9.03;4.07;;;4.90;97.30;;;;;;5076468;28;20401;-91
2022/01/23 01:39:25;;;;;;;6.10;3.23;;;4.90;97.30;;;;;;5076165;28;20517;-91
2022/01/23 01:41:52;;;;;;;7.47;3.33;;;4.90;97.30;;;;;;5076264;28;20903;-92
2022/01/23 01:44:19;;;;;;;7.57;3.80;;;4.90;97.30;;;;;;5076415;28;20502;-92
2022/01/23 01:46:44;;;;;;;7.73;4.53;;;4.90;97.30;;;;;;5076976;28;20497;-92
2022/01/23 01:49:11;;;;;;;5.30;3.30;;;4.80;97.30;;;;;;5076701;28;20847;-92
2022/01/23 01:51:37;;;;;;;7.43;3.17;;;4.80;97.30;;;;;;5079813;28;20183;-91
2022/01/23 01:54:11;;;;;;;9.07;4.10;;;4.80;97.30;;;;;;5076353;28;20535;-91
2022/01/23 01:56:49;;;;;;;8.83;4.03;;;4.90;97.30;;;;;;5075983;28;20413;-92
2022/01/23 02:09:34;;;;;;;7.23;3.93;;;4.80;97.30;;;;;;5094305;28;20289;-91
2022/01/23 02:14:41;;;;;;;10.63;4.97;;;4.90;97.30;;;;;;5093825;28;20997;-91
2022/01/23 02:50:30;;;;;;;9.20;3.90;;;4.80;97.30;;;;;;5011407;28;20412;-89
2022/01/23 02:55:40;;;;;;;8.33;4.20;;;4.80;97.30;;;;;;5054976;28;20417;-89
2022/01/23 02:58:08;;;;;;;8.97;4.50;;;4.80;97.30;;;;;;5075000;28;20893;-89
2022/01/23 03:00:46;;;;;;;9.37;5.10;;;4.80;97.30;;;;;;5074829;28;20531;-89
2022/01/23 03:03:14;;;;;;;12.97;5.40;;;4.80;97.30;;;;;;5074873;28;20462;-88
2022/01/23 03:05:41;;;;;;;12.93;5.93;;;4.80;97.30;;;;;;5074824;28;20424;-89
2022/01/23 03:11:14;;;;;;;8.60;4.70;;;4.80;97.30;;;;;;5047645;28;20507;-88
2022/01/23 03:13:51;;;;;;;9.50;4.47;;;4.80;97.30;;;;;;5074049;28;20452;-89
2022/01/23 03:24:44;;;;;;;12.17;5.00;;;4.80;97.30;;;;;;5092925;28;20392;-88
2022/01/23 03:27:15;;;;;;;10.87;4.83;;;4.80;97.30;;;;;;5092059;28;20542;-88
2022/01/23 03:30:03;;;;;;;13.40;5.13;;;4.80;97.30;;;;;;5074522;28;20451;-88
2022/01/23 03:34:55;;;;;;;9.57;4.33;;;4.80;97.30;;;;;;5098365;28;20921;-89
2022/01/23 03:37:20;;;;;;;10.73;4.97;;;4.80;97.30;;;;;;5076077;28;20189;-88
2022/01/23 03:39:47;;;;;;;17.50;6.03;;;4.80;97.30;;;;;;5074547;28;20460;-89
2022/01/23 03:42:12;;;;;;;16.47;7.40;;;4.80;97.30;;;;;;5074482;28;20814;-89
2022/01/23 03:44:42;;;;;;;16.53;6.03;;;4.80;97.30;;;;;;5074497;28;20487;-88
2022/01/23 03:49:39;;;;;;;12.13;5.80;;;4.80;97.30;;;;;;5092751;28;21319;-88
2022/01/23 03:52:11;;;;;;;16.23;5.73;;;4.80;97.30;;;;;;5074381;28;20412;-89
2022/01/23 03:54:37;;;;;;;15.10;6.10;;;4.80;97.30;;;;;;5074059;28;20580;-89
2022/01/23 03:57:04;;;;;;;15.70;6.40;;;4.80;97.30;;;;;;5074211;28;20408;-88
2022/01/23 03:59:31;;;;;;;23.83;5.80;;;4.80;97.30;;;;;;5074155;28;20475;-88
2022/01/23 04:01:58;;;;;;;17.80;6.93;;;4.70;97.30;;;;;;5074101;28;20413;-89
2022/01/23 04:04:38;;;;;;;14.03;6.17;;;4.70;97.30;;;;;;5074070;28;20416;-88
2022/01/23 04:07:27;;;;;;;12.87;5.60;;;4.70;97.30;;;;;;5074387;28;20404;-89
2022/01/23 04:09:53;;;;;;;19.27;7.63;;;4.70;97.30;;;;;;5074803;28;20437;-88
2022/01/23 04:14:59;;;;;;;15.70;6.60;;;4.70;97.30;;;;;;5092559;28;20159;-89
2022/01/23 04:20:29;;;;;;;18.00;7.07;;;4.70;97.30;;;;;;5099858;28;20440;-88
2022/01/23 04:33:57;;;;;;;13.87;7.20;;;4.70;97.30;;;;;;5095892;28;20450;-89
2022/01/23 04:45:25;;;;;;;15.37;6.77;;;4.60;97.30;;;;;;5095544;28;20461;-89
2022/01/23 05:00:54;;;;;;;14.50;5.43;;;4.60;97.30;;;;;;5096578;28;20423;-88
2022/01/23 05:04:10;;;;;;;19.97;6.67;;;4.50;97.30;;;;;;5096876;28;20443;-88
2022/01/23 05:06:10;;;;;;;11.53;6.20;;;4.60;97.30;;;;;;5095500;28;20436;-87
2022/01/23 05:08:37;;;;;;;15.30;6.30;;;4.60;97.30;;;;;;5080447;28;20442;-88
2022/01/23 05:11:06;;;;;;;19.80;8.03;;;4.60;97.30;;;;;;5094938;28;20401;-88
2022/01/23 05:13:32;;;;;;;16.90;7.03;;;4.60;97.30;;;;;;5076306;28;20463;-88
2022/01/23 05:15:58;;;;;;;14.07;5.87;;;4.60;97.30;;;;;;5076975;28;20404;-89
2022/01/23 05:18:23;;;;;;;17.13;7.10;;;4.50;97.30;;;;;;5076890;28;20503;-89
2022/01/23 05:20:58;;;;;;;17.60;6.57;;;4.60;97.30;;;;;;5076838;28;20193;-88
2022/01/23 05:23:23;;;;;;;19.30;7.83;;;4.60;97.30;;;;;;5076990;28;20174;-89
2022/01/23 05:25:49;;;;;;;21.73;7.83;;;4.60;97.30;;;;;;5094867;28;20419;-90
2022/01/23 05:28:14;;;;;;;17.40;7.57;;;4.60;97.30;;;;;;5076886;28;20189;-89
2022/01/23 05:30:40;;;;;;;14.93;6.17;;;4.60;97.30;;;;;;5076397;28;20196;-89
2022/01/23 05:33:06;;;;;;;17.13;6.77;;;4.60;97.30;;;;;;5076444;28;20615;-90
2022/01/23 05:35:32;;;;;;;16.43;7.03;;;4.60;97.30;;;;;;5076613;28;20405;-90
2022/01/23 05:37:58;;;;;;;13.73;5.80;;;4.60;97.30;;;;;;5075692;28;20194;-90
2022/01/23 05:40:26;;;;;;;16.83;6.47;;;4.60;97.30;;;;;;5076464;28;20241;-89
2022/01/23 05:42:52;;;;;;;19.33;7.13;;;4.60;97.30;;;;;;5076401;28;20658;-90
2022/01/23 05:45:17;;;;;;;13.97;5.83;;;4.60;97.30;;;;;;5076155;28;20463;-90
2022/01/23 05:47:43;;;;;;;16.27;6.37;;;4.60;97.30;;;;;;5076064;28;20221;-90
2022/01/23 05:50:09;;;;;;;16.83;8.43;;;4.70;97.30;;;;;;5076163;28;20216;-89
2022/01/23 05:52:35;;;;;;;17.27;6.40;;;4.70;97.30;;;;;;5076238;28;20548;-89
2022/01/23 05:55:01;;;;;;;17.43;5.97;;;4.70;97.30;;;;;;5094000;28;20251;-90
2022/01/23 05:57:26;;;;;;;14.50;6.43;;;4.70;97.30;;;;;;5075990;28;20404;-90
2022/01/23 05:59:52;;;;;;;18.70;6.70;;;4.70;97.30;;;;;;5075844;28;20431;-90
2022/01/23 06:02:17;;;;;;;18.27;6.67;;;4.70;97.30;;;;;;5075790;28;20744;-90
2022/01/23 06:04:43;;;;;;;12.47;5.93;;;4.70;97.30;;;;;;5075829;28;20206;-90
2022/01/23 06:07:09;;;;;;;15.90;6.60;;;4.70;97.30;;;;;;5075881;28;20224;-90
2022/01/23 06:09:37;;;;;;;14.17;6.50;;;4.70;97.30;;;;;;5075222;28;20194;-90
2022/01/23 06:12:04;;;;;;;15.47;6.57;;;4.60;97.30;;;;;;5075740;28;20547;-90
2022/01/23 06:14:30;;;;;;;20.80;7.03;;;4.70;97.30;;;;;;5075707;28;20456;-90
2022/01/23 06:16:55;;;;;;;15.77;6.33;;;4.60;97.30;;;;;;5075728;28;20409;-90
2022/01/23 06:19:21;;;;;;;13.73;5.80;;;4.60;97.30;;;;;;5075553;28;20194;-90
2022/01/23 06:21:46;;;;;;;14.10;6.37;;;4.50;97.30;;;;;;5075549;28;20174;-90
2022/01/23 06:24:26;;;;;;;14.50;5.80;;;4.50;97.30;;;;;;5075708;28;20174;-87
2022/01/23 06:26:54;;;;;;;15.87;6.00;;;4.50;97.30;;;;;;5093730;28;20200;-87
2022/01/23 06:29:21;;;;;;;12.77;5.50;;;4.40;97.30;;;;;;5075383;28;20493;-88
2022/01/23 06:31:47;;;;;;;14.37;6.50;;;4.40;97.30;;;;;;5075190;28;20413;-88
2022/01/23 06:34:14;;;;;;;16.73;6.40;;;4.40;97.30;;;;;;5074948;28;20467;-87
2022/01/23 06:36:40;;;;;;;16.70;5.77;;;4.40;97.30;;;;;;5077093;28;20408;-88
2022/01/23 06:39:08;;;;;;;21.33;7.37;;;4.40;97.30;;;;;;5075991;28;20977;-88
2022/01/23 06:41:33;;;;;;;18.47;7.23;;;4.40;97.30;;;;;;5075389;28;20466;-89
2022/01/23 06:43:59;;;;;;;18.70;6.90;;;4.30;97.30;;;;;;5076151;28;20420;-88
2022/01/23 06:46:25;;;;;;;18.30;7.47;;;4.30;97.30;;;;;;5075473;28;20185;-89
2022/01/23 06:48:50;;;;;;;22.80;6.97;;;4.30;97.30;;;;;;5074095;28;20177;-89
2022/01/23 06:51:16;;;;;;;17.50;7.33;;;4.30;97.30;;;;;;5075072;28;20310;-88
2022/01/23 06:53:42;;;;;;;17.30;7.50;;;4.20;97.30;;;;;;5074741;28;20619;-88
2022/01/23 06:56:07;;;;;;;19.47;7.27;;;4.20;97.30;;;;;;5074620;28;21008;-88
2022/01/23 06:58:33;;;;;;;15.80;6.37;;;4.20;97.30;;;;;;5092463;28;20166;-88
2022/01/23 07:00:58;;;;;;;15.57;5.57;;;4.20;97.30;;;;;;5074250;28;20309;-89
2022/01/23 07:03:24;;;;;;;19.20;8.43;;;4.20;97.30;;;;;;5093112;28;20232;-88
2022/01/23 07:05:50;;;;;;;20.10;6.63;;;4.20;97.30;;;;;;5074647;28;20228;-88
2022/01/23 07:08:16;;;;;;;21.80;7.73;;;4.20;97.30;;;;;;5074844;28;20632;-86
2022/01/23 07:10:41;;;;;;;14.97;6.67;;;4.20;97.30;;;;;;5074686;28;20198;-86
2022/01/23 07:13:07;;;;;;;22.40;7.97;;;4.20;97.30;;;;;;5074650;28;20464;-86
2022/01/23 07:15:32;;;;;;;21.13;7.47;;;4.20;97.30;;;;;;5092402;28;20174;-86
2022/01/23 07:17:58;;;;;;;18.57;8.00;;;4.20;97.30;;;;;;5074208;28;20167;-86
2022/01/23 07:20:24;;;;;;;19.13;7.87;;;4.20;97.30;;;;;;5074451;28;20205;-85
2022/01/23 07:22:49;;;;;;;19.57;7.67;;;4.20;97.30;;;;;;5074203;28;20181;-87
2022/01/23 07:25:15;;;;;;;18.33;7.23;;;4.20;97.30;;;;;;5074103;28;20409;-86
2022/01/23 07:27:47;;;;;;;19.13;6.90;;;4.20;97.30;;;;;;5074413;28;20178;-86
2022/01/23 07:30:50;;;;;;;15.20;6.87;;;4.20;97.30;;;;;;5074324;28;20280;-86
2022/01/23 07:33:05;;;;;;;19.43;7.63;;;4.30;97.30;;;;;;5088972;28;20537;-86
2022/01/23 07:35:31;;;;;;;19.40;7.03;;;4.30;97.30;;;;;;5075227;28;20914;-86
2022/01/23 07:37:57;;;;;;;16.57;6.47;;;4.30;97.30;;;;;;5074273;28;20240;-86
2022/01/23 07:40:23;;;;;;;17.07;7.37;;;4.30;97.30;;;;;;5073991;28;20490;-86
2022/01/23 07:42:49;;;;;;;19.93;6.43;;;4.30;97.30;;;;;;5092339;28;20178;-86
2022/01/23 07:45:14;;;;;;;17.00;7.17;;;4.30;97.30;;;;;;5074137;28;20175;-86
2022/01/23 07:47:40;;;;;;;17.60;7.40;;;4.30;97.30;;;;;;5074108;28;20179;-86
2022/01/23 07:50:08;;;;;;;19.93;7.20;;;4.30;97.30;;;;;;5073965;28;20289;-86
2022/01/23 07:52:35;;;;;;;17.07;6.57;;;4.30;97.30;;;;;;5074032;28;20444;-86
2022/01/23 07:55:10;;;;;;;17.93;7.63;;;4.40;97.30;;;;;;5073953;28;20424;-86
2022/01/23 07:57:37;;;;;;;17.87;6.40;;;4.40;97.30;;;;;;5073836;28;20414;-87
2022/01/23 08:00:04;;;;;;;17.00;6.50;;;4.40;97.30;;;;;;5074040;28;20424;-87
2022/01/23 08:02:31;;;;;;;14.37;6.17;;;4.40;97.30;;;;;;5078116;28;20409;-87
2022/01/23 08:04:56;;;;;;;20.93;7.40;;;4.40;97.30;;;;;;5078485;28;20415;-87
2022/01/23 08:09:47;;;;;;;17.70;6.10;;;4.40;97.30;;;;;;5096066;28;20190;-87
2022/01/23 08:12:13;;;;;;;19.27;7.37;;;4.50;97.30;;;;;;5077925;28;20797;-88
2022/01/23 08:14:38;;;;;;;16.67;6.83;;;4.50;97.30;;;;;;5077951;28;20206;-87
2022/01/23 08:17:04;;;;;;;20.50;6.83;;;4.50;97.30;;;;;;5077832;28;20181;-87
2022/01/23 08:19:30;;;;;;;15.60;6.93;;;4.50;97.30;;;;;;5077980;28;20273;-87
2022/01/23 08:21:55;;;;;;;21.83;8.10;;;4.50;97.30;;;;;;5095663;28;20667;-87
2022/01/23 08:24:21;;;;;;;14.97;6.47;;;4.60;97.30;;;;;;5077659;28;20179;-87
2022/01/23 08:26:46;;;;;;;18.37;6.10;;;4.60;97.30;;;;;;5077807;28;20178;-87
2022/01/23 08:29:12;;;;;;;14.30;6.77;;;4.50;97.30;;;;;;5077957;28;20202;-87
2022/01/23 08:31:37;;;;;;;15.90;6.17;;;4.60;97.30;;;;;;5078298;28;20640;-87
2022/01/23 08:34:03;;;;;;;16.63;6.47;;;4.50;97.30;;;;;;5082421;28;20281;-87
2022/01/23 08:36:31;;;;;;;12.40;6.10;;;4.60;97.30;;;;;;5077822;28;20228;-87
2022/01/23 08:38:58;;;;;;;12.80;5.73;;;4.50;97.30;;;;;;5077569;28;20214;-87
2022/01/23 08:43:50;;;;;;;12.73;5.63;;;4.50;97.30;;;;;;5096015;28;20413;-86
2022/01/23 08:46:16;;;;;;;17.53;5.77;;;4.50;97.30;;;;;;5077154;28;20186;-87
2022/01/23 08:48:42;;;;;;;12.83;4.90;;;4.60;97.30;;;;;;5084195;28;20423;-87
2022/01/23 08:51:11;;;;;;;11.87;5.53;;;4.60;97.30;;;;;;5076978;28;20408;-87
2022/01/23 08:53:37;;;;;;;12.87;4.97;;;4.60;97.30;;;;;;5095215;28;20213;-87
2022/01/23 08:56:04;;;;;;;12.80;5.07;;;4.60;97.30;;;;;;5077053;28;20491;-86
2022/01/23 08:58:30;;;;;;;11.77;5.00;;;4.60;97.30;;;;;;5077310;28;20423;-88
2022/01/23 09:00:55;;;;;;;12.80;4.93;;;4.70;97.30;;;;;;5076883;28;20436;-87
2022/01/23 09:03:21;;;;;;;11.63;5.27;;;4.70;97.30;;;;;;5077128;28;20178;-87
2022/01/23 09:05:46;;;;;;;10.97;3.80;;;4.70;97.30;;;;;;5077064;28;20195;-87
2022/01/23 09:08:12;;;;;;;12.13;4.87;;;4.70;97.30;;;;;;5076703;28;20192;-87
2022/01/23 09:10:42;;;;;;;10.47;5.00;;;4.70;97.30;;;;;;5095173;28;20193;-87
2022/01/23 09:16:01;;;;;;;29.93;11.13;;;4.70;97.30;;;;;;5071044;28;20416;-87
2022/01/23 09:18:26;;;;;;;9.90;5.47;;;4.70;97.30;;;;;;5095042;28;20491;-87
2022/01/23 09:20:52;;;;;;;11.53;4.73;;;4.70;97.30;;;;;;5076736;28;20421;-87
2022/01/23 09:23:17;;;;;;;12.20;5.30;;;4.80;97.30;;;;;;5076571;28;20919;-87
2022/01/23 09:25:43;;;;;;;11.47;4.53;;;4.80;97.30;;;;;;5076477;28;20186;-87
2022/01/23 09:28:13;;;;;;;8.53;3.93;;;4.80;97.30;;;;;;5076597;28;20189;-87
2022/01/23 09:30:44;;;;;;;10.27;4.93;;;4.80;97.30;;;;;;5079030;28;20598;-87
2022/01/23 09:33:10;;;;;;;8.13;4.27;;;4.80;97.30;;;;;;5076439;28;21186;-87
2022/01/23 09:35:35;;;;;;;10.60;4.60;;;4.90;97.30;;;;;;5076527;28;20505;-87
2022/01/23 09:38:01;;;;;;;8.00;3.90;;;4.90;97.30;;;;;;5076365;28;20629;-87
2022/01/23 09:40:27;;;;;;;9.47;5.00;;;4.90;97.30;;;;;;5059828;28;20574;-87
2022/01/23 09:43:01;;;;;;;7.80;4.10;;;4.90;97.30;;;;;;5055839;28;20702;-87
2022/01/23 09:45:27;;;;;;;9.10;4.47;;;5.00;97.30;;;;;;5055938;28;20170;-87
2022/01/23 09:47:57;;;;;;;12.20;5.13;;;5.00;97.30;;;;;;5055873;28;20535;-87
2022/01/23 09:50:22;;;;;;;11.00;4.53;;;5.10;97.30;;;;;;5056012;28;20533;-87
2022/01/23 09:52:53;;;;;;;12.43;5.63;;;5.10;97.30;;;;;;5055765;28;20534;-87
2022/01/23 09:55:19;;;;;;;11.90;4.53;;;5.20;97.30;;;;;;5056186;28;20175;-87
2022/01/23 09:57:47;;;;;;;7.80;4.57;;;5.20;97.30;;;;;;5056293;28;20532;-88
2022/01/23 10:00:19;;;;;;;9.20;4.40;;;5.20;97.30;;;;;;5052740;28;20445;-87
2022/01/23 10:02:50;;;;;;;9.80;5.00;;;5.20;97.30;;;;;;5055981;28;20559;-88
2022/01/23 10:05:15;;;;;;;11.83;5.70;;;5.20;97.30;;;;;;5055754;28;20904;-87
2022/01/23 10:07:43;;;;;;;9.83;4.53;;;5.20;97.30;;;;;;5073377;28;20421;-88
2022/01/23 10:10:20;;;;;;;12.17;5.10;;;5.20;97.30;;;;;;5073729;28;20210;-87
2022/01/23 10:12:50;;;;;;;7.60;3.67;;;5.20;97.30;;;;;;5055508;28;20766;-87
2022/01/23 10:15:16;;;;;;;5.70;3.90;;;5.30;97.30;;;;;;5055314;28;20418;-87
2022/01/23 10:17:41;;;;;;;7.73;3.20;;;5.30;97.30;;;;;;5055606;28;20795;-87
2022/01/23 10:20:09;;;;;;;9.20;4.60;;;5.30;97.30;;;;;;5055623;28;20429;-87
2022/01/23 10:22:36;;;;;;;8.13;4.90;;;5.30;97.30;;;;;;5055183;28;20258;-87
2022/01/23 10:25:13;;;;;;;8.30;4.03;;;5.40;97.30;;;;;;5055206;28;20417;-87
2022/01/23 10:27:57;;;;;;;11.17;4.53;;;5.50;97.30;;;;;;5055383;28;20511;-87
2022/01/23 10:30:24;;;;;;;8.53;3.77;;;5.50;97.30;;;;;;5055350;28;20491;-87
2022/01/23 10:33:10;;;;;;;11.93;4.27;;;5.60;97.30;;;;;;5072978;28;20408;-87
2022/01/23 10:36:05;;;;;;;10.73;4.43;;;5.60;97.30;;;;;;5073212;28;20405;-87
2022/01/23 10:38:50;;;;;;;10.57;4.63;;;5.60;97.30;;;;;;5061697;28;20420;-87
2022/01/23 10:47:31;;;;;;;7.63;3.67;;;5.60;97.30;;;;;;5093181;28;20408;-87
2022/01/23 10:50:00;;;;;;;8.33;4.00;;;5.60;97.30;;;;;;5074888;28;20435;-87
2022/01/23 10:52:35;;;;;;;5.27;3.20;;;5.60;97.30;;;;;;5074798;28;20412;-88
2022/01/23 10:55:03;;;;;;;7.53;3.90;;;5.60;97.30;;;;;;5074928;28;20550;-87
2022/01/23 10:57:43;;;;;;;5.90;3.30;;;5.60;97.30;;;;;;5074949;28;20408;-87
2022/01/23 11:00:20;;;;;;;6.83;3.27;;;5.60;97.30;;;;;;5074350;28;20440;-87
2022/01/23 11:02:47;;;;;;;4.77;2.90;;;5.60;97.30;;;;;;5074724;28;20487;-87
2022/01/23 11:05:15;;;;;;;14.40;7.50;;;5.60;97.30;;;;;;5092825;28;20829;-87
2022/01/23 11:07:43;;;;;;;10.07;5.47;;;5.70;97.30;;;;;;5092815;28;20412;-87
2022/01/23 11:10:12;;;;;;;11.63;5.90;;;5.70;97.30;;;;;;5074600;28;20523;-87
2022/01/23 11:18:05;;;;;;;10.70;4.70;;;5.80;97.30;;;;;;5092928;28;20458;-87
2022/01/23 11:20:35;;;;;;;8.50;4.00;;;5.90;97.30;;;;;;5074799;28;20474;-87
2022/01/23 11:23:23;;;;;;;9.50;5.03;;;5.80;97.30;;;;;;5074918;28;20431;-87
2022/01/23 11:25:51;;;;;;;12.20;5.50;;;5.80;97.30;;;;;;5077428;28;20409;-87
2022/01/23 11:28:17;;;;;;;8.60;4.60;;;5.90;97.30;;;;;;5099610;28;20419;-87
2022/01/23 11:30:45;;;;;;;8.30;4.40;;;5.90;97.30;;;;;;5097890;28;20429;-87
2022/01/23 11:33:13;;;;;;;6.97;3.70;;;5.90;97.30;;;;;;5091184;28;20707;-87
2022/01/23 11:35:39;;;;;;;12.77;5.13;;;5.80;97.30;;;;;;5073914;28;20408;-87
2022/01/23 11:38:11;;;;;;;6.60;3.70;;;5.90;97.30;;;;;;5095186;28;20455;-87
2022/01/23 11:50:37;;;;;;;7.90;3.30;;;5.90;97.30;;;;;;5076375;28;20468;-87
2022/01/23 11:54:47;;;;;;;6.03;3.53;;;5.90;97.30;;;;;;5092396;28;20501;-87
2022/01/23 11:57:38;;;;;;;8.10;4.07;;;6.00;97.30;;;;;;5074370;28;20420;-87
2022/01/23 12:00:11;;;;;;;6.80;3.23;;;6.00;97.30;;;;;;5092724;28;21131;-87
2022/01/23 12:02:40;;;;;;;9.67;3.63;;;6.10;97.30;;;;;;5092022;28;20408;-87
2022/01/23 12:05:16;;;;;;;7.17;3.60;;;6.10;97.30;;;;;;5074023;28;20427;-87
2022/01/23 12:07:43;;;;;;;10.13;5.30;;;6.10;97.30;;;;;;5074068;28;20412;-87
2022/01/23 12:10:24;;;;;;;7.80;5.20;;;6.10;97.30;;;;;;5091920;28;20803;-87
2022/01/23 12:13:13;;;;;;;8.50;4.50;;;6.00;97.30;;;;;;5092259;28;20392;-86
2022/01/23 12:18:36;;;;;;;10.13;5.33;;;6.00;97.30;;;;;;5091300;28;20450;-87
2022/01/23 12:21:02;;;;;;;15.43;4.63;;;6.10;97.30;;;;;;5071143;28;20440;-87
2022/01/23 12:23:27;;;;;;;10.97;5.20;;;6.10;97.30;;;;;;5071015;28;20648;-88
2022/01/23 12:25:58;;;;;;;7.60;4.27;;;6.10;97.30;;;;;;5071319;28;20186;-87
2022/01/23 12:28:32;;;;;;;9.57;3.77;;;6.10;97.30;;;;;;5071128;28;20265;-88
2022/01/23 12:31:21;;;;;;;10.50;4.30;;;6.10;97.30;;;;;;5072113;28;20451;-87
2022/01/23 12:33:52;;;;;;;15.47;3.93;;;6.10;97.30;;;;;;5070028;28;20460;-87
2022/01/23 12:36:25;;;;;;;7.23;4.17;;;6.20;97.30;;;;;;5051144;28;20413;-88
2022/01/23 12:38:57;;;;;;;8.10;3.57;;;6.10;97.30;;;;;;5053608;28;20449;-87
2022/01/23 12:41:40;;;;;;;11.33;5.37;;;6.10;97.30;;;;;;5053909;28;20470;-87
2022/01/23 12:44:29;;;;;;;8.63;4.50;;;6.10;97.30;;;;;;5071599;28;20467;-87
2022/01/23 12:46:57;;;;;;;9.37;5.07;;;6.10;97.30;;;;;;5055286;28;20452;-87
2022/01/23 12:49:29;;;;;;;8.43;3.80;;;6.10;97.30;;;;;;5075420;28;20429;-88
2022/01/23 12:52:09;;;;;;;5.70;3.83;;;6.10;97.30;;;;;;5057086;28;20417;-87
2022/01/23 12:54:59;;;;;;;9.20;4.63;;;6.20;97.30;;;;;;5057285;28;20495;-87
2022/01/23 12:57:35;;;;;;;5.87;3.40;;;6.20;97.30;;;;;;5057261;28;20405;-87
2022/01/23 13:00:16;;;;;;;7.37;4.17;;;6.20;97.30;;;;;;5064574;28;20447;-87
2022/01/23 13:02:49;;;;;;;6.30;3.47;;;6.20;97.30;;;;;;5072652;28;21009;-87
2022/01/23 13:05:16;;;;;;;8.80;4.43;;;6.20;97.30;;;;;;5077048;28;20409;-87
2022/01/23 13:28:36;;;;;;;8.17;4.40;;;6.30;97.30;;;;;;5095664;28;20397;-87
2022/01/23 13:30:17;;;;;;;59.90;22.50;;;6.30;97.30;;;;;;5092999;28;20432;-87
2022/01/23 13:32:46;;;;;;;16.53;8.40;;;6.30;97.30;;;;;;5080334;28;20515;-87
2022/01/23 13:35:16;;;;;;;13.30;6.30;;;6.30;97.30;;;;;;5095149;28;20539;-87
2022/01/23 13:37:47;;;;;;;11.90;6.40;;;6.30;97.30;;;;;;5077204;28;20424;-86
2022/01/23 13:40:26;;;;;;;14.20;6.10;;;6.30;97.30;;;;;;5077162;28;20830;-87
2022/01/23 13:51:20;;;;;;;6.97;2.90;;;6.30;97.30;;;;;;5094441;28;20433;-87
2022/01/23 13:59:48;;;;;;;7.43;3.53;;;6.30;97.30;;;;;;5093481;28;20424;-87
2022/01/23 14:02:43;;;;;;;8.70;3.83;;;6.20;97.30;;;;;;5076103;28;20409;-87
2022/01/23 14:05:17;;;;;;;6.90;3.83;;;6.30;97.30;;;;;;5075554;28;20949;-87
2022/01/23 14:07:51;;;;;;;7.60;3.90;;;6.30;97.30;;;;;;5076200;28;20974;-87
2022/01/23 14:10:23;;;;;;;6.07;3.57;;;6.40;97.30;;;;;;5075543;28;21104;-87
2022/01/23 14:12:50;;;;;;;8.40;3.73;;;6.40;97.30;;;;;;5075763;28;20440;-87
2022/01/23 14:15:22;;;;;;;7.20;3.70;;;6.40;97.30;;;;;;5075921;28;20413;-88
2022/01/23 14:18:06;;;;;;;7.23;3.27;;;6.40;97.30;;;;;;5075759;28;20405;-87
2022/01/23 14:20:35;;;;;;;6.27;3.43;;;6.40;97.30;;;;;;5075197;28;20477;-87
2022/01/23 14:23:17;;;;;;;10.63;4.80;;;6.40;97.30;;;;;;5074886;28;20478;-87
2022/01/23 14:25:56;;;;;;;9.93;4.13;;;6.40;97.30;;;;;;5093576;28;20400;-87
2022/01/23 14:28:45;;;;;;;14.03;6.60;;;6.40;97.30;;;;;;5075359;28;20396;-87
2022/01/23 14:31:18;;;;;;;8.43;4.73;;;6.40;97.30;;;;;;5075292;28;20937;-86
2022/01/23 14:33:47;;;;;;;7.90;4.40;;;6.40;97.30;;;;;;5075562;28;21162;-87
2022/01/23 14:36:39;;;;;;;22.70;10.00;;;6.40;97.30;;;;;;5075384;28;20419;-86
2022/01/23 14:39:11;;;;;;;10.70;5.20;;;6.40;97.30;;;;;;5071169;28;20453;-87
2022/01/23 14:41:42;;;;;;;8.50;4.30;;;6.30;97.30;;;;;;5075260;28;20436;-88
2022/01/23 14:44:20;;;;;;;7.53;4.50;;;6.30;97.30;;;;;;5075002;28;20558;-87
2022/01/23 14:46:47;;;;;;;7.43;4.53;;;6.30;97.30;;;;;;5093587;28;20413;-87
2022/01/23 14:49:21;;;;;;;8.60;4.70;;;6.20;97.30;;;;;;5075058;28;20981;-87
2022/01/23 14:51:47;;;;;;;11.40;4.80;;;6.20;97.30;;;;;;5075132;28;20409;-87
2022/01/23 14:54:12;;;;;;;9.97;5.10;;;6.30;97.30;;;;;;5074911;28;20551;-87
2022/01/23 14:56:39;;;;;;;13.90;5.30;;;6.30;97.30;;;;;;5074947;28;20178;-87
2022/01/23 14:59:09;;;;;;;9.67;4.90;;;6.20;97.30;;;;;;5092972;28;20186;-86
2022/01/23 15:01:36;;;;;;;13.30;5.03;;;6.20;97.30;;;;;;5093216;28;21196;-87
2022/01/23 15:04:06;;;;;;;16.57;5.20;;;6.20;97.30;;;;;;5074985;28;20470;-86
2022/01/23 15:06:32;;;;;;;15.47;6.87;;;6.10;97.30;;;;;;5074796;28;20419;-86
2022/01/23 15:09:06;;;;;;;12.33;6.20;;;6.10;97.30;;;;;;5074401;28;20427;-86
2022/01/23 15:11:32;;;;;;;26.20;11.20;;;6.10;97.30;;;;;;5091532;28;20404;-86
2022/01/23 15:13:58;;;;;;;16.33;7.40;;;6.10;97.30;;;;;;5072399;28;20455;-86
2022/01/23 15:16:23;;;;;;;12.57;5.60;;;6.10;97.30;;;;;;5091265;28;20404;-87
2022/01/23 15:18:49;;;;;;;30.90;12.43;;;6.10;97.30;;;;;;5074162;28;20292;-87
2022/01/23 15:21:14;;;;;;;17.70;8.77;;;6.10;97.30;;;;;;5075192;28;20166;-86
2022/01/23 15:23:41;;;;;;;21.30;10.40;;;6.10;97.30;;;;;;5074816;28;20175;-86
2022/01/23 15:26:06;;;;;;;25.93;11.10;;;6.10;97.30;;;;;;5075079;28;20648;-87
2022/01/23 15:28:32;;;;;;;17.30;8.07;;;6.10;97.30;;;;;;5075499;28;20507;-87
2022/01/23 15:30:58;;;;;;;19.70;8.97;;;6.10;97.30;;;;;;5074709;28;20657;-86
2022/01/23 15:33:23;;;;;;;24.63;11.33;;;6.10;97.30;;;;;;5074780;28;20229;-87
2022/01/23 15:35:49;;;;;;;13.00;4.73;;;6.10;97.30;;;;;;5074700;28;20177;-85
2022/01/23 15:38:18;;;;;;;20.43;8.90;;;6.10;97.30;;;;;;5092787;28;20636;-87
2022/01/23 15:40:44;;;;;;;21.23;7.97;;;6.10;97.30;;;;;;5073998;28;20306;-87
2022/01/23 15:43:10;;;;;;;53.80;27.07;;;6.10;97.30;;;;;;5054879;28;21104;-87
2022/01/23 15:45:36;;;;;;;11.33;5.87;;;6.10;97.30;;;;;;5072303;28;20259;-87
2022/01/23 15:48:01;;;;;;;24.63;11.40;;;6.10;97.30;;;;;;5072586;28;20496;-87
2022/01/23 15:50:27;;;;;;;32.30;14.20;;;6.10;97.30;;;;;;5053864;28;20592;-87
2022/01/23 15:52:53;;;;;;;23.17;9.67;;;6.10;97.30;;;;;;5054223;28;20186;-86
2022/01/23 15:55:19;;;;;;;57.03;22.13;;;6.10;97.30;;;;;;5054094;28;20183;-86
2022/01/23 15:57:48;;;;;;;17.23;6.73;;;6.10;97.30;;;;;;5054653;28;20182;-88
2022/01/23 16:00:14;;;;;;;12.20;6.10;;;6.10;97.30;;;;;;5072165;28;20433;-86
2022/01/23 16:02:40;;;;;;;17.63;9.03;;;6.10;97.30;;;;;;5055076;28;20409;-86
2022/01/23 16:05:07;;;;;;;10.50;5.40;;;6.10;97.30;;;;;;5053714;28;20779;-86
2022/01/23 16:07:32;;;;;;;17.80;8.50;;;6.10;97.30;;;;;;5072111;28;20433;-87
2022/01/23 16:09:58;;;;;;;14.17;6.10;;;6.10;97.30;;;;;;5054061;28;20770;-86
2022/01/23 16:12:24;;;;;;;14.03;6.80;;;6.10;97.30;;;;;;5053837;28;20172;-87
2022/01/23 16:14:49;;;;;;;10.87;5.27;;;6.10;97.30;;;;;;5053936;28;20525;-87
2022/01/23 16:17:15;;;;;;;19.00;8.57;;;6.10;97.30;;;;;;5054132;28;20183;-87
2022/01/23 16:19:40;;;;;;;25.07;9.57;;;6.10;97.30;;;;;;5054408;28;20200;-88
2022/01/23 16:22:06;;;;;;;11.57;5.57;;;6.10;97.30;;;;;;5055952;28;20636;-87